sensor_id;sensor_type;location;lat;lon;timestamp;pressure;altitude;pressure_sealevel;temperature;humidity
61757;BME280;57225;61.460;24.060;2022-10-04T00:02:28;99551.38;;;5.13;100.00
61757;BME280;57225;61.460;24.060;2022-10-04T00:05:18;99549.75;;;5.09;100.00
61757;BME280;57225;61.460;24.060;2022-10-04T00:08:46;99551.69;;;5.05;100.00
61757;BME280;57225;61.460;24.060;2022-10-04T00:11:37;99551.31;;;5.06;100.00
61757;BME280;57225;61.460;24.060;2022-10-04T00:14:27;99547.72;;;5.02;100.00
61757;BME280;57225;61.460;24.060;2022-10-04T00:17:20;99531.50;;;4.97;100.00
61757;BME280;57225;61.460;24.060;2022-10-04T00:29:30;99529.09;;;4.92;100.00
61757;BME280;57225;61.460;24.060;2022-10-04T00:34:59;99533.41;;;4.90;100.00
61757;BME280;57225;61.460;24.060;2022-10-04T00:40:52;99518.78;;;4.89;100.00
61757;BME280;57225;61.460;24.060;2022-10-04T00:43:42;99524.31;;;4.89;100.00
61757;BME280;57225;61.460;24.060;2022-10-04T00:46:30;99513.13;;;4.75;100.00
61757;BME280;57225;61.460;24.060;2022-10-04T00:49:16;99518.78;;;4.85;100.00
61757;BME280;57225;61.460;24.060;2022-10-04T00:52:11;99518.72;;;4.82;100.00
61757;BME280;57225;61.460;24.060;2022-10-04T00:54:59;99503.66;;;4.72;100.00
61757;BME280;57225;61.460;24.060;2022-10-04T00:57:48;99505.63;;;4.75;100.00
61757;BME280;57225;61.460;24.060;2022-10-04T01:00:35;99510.69;;;4.66;100.00
61757;BME280;57225;61.460;24.060;2022-10-04T01:03:27;99500.47;;;4.70;100.00
61757;BME280;57225;61.460;24.060;2022-10-04T01:06:16;99500.44;;;4.67;100.00
61757;BME280;57225;61.460;24.060;2022-10-04T01:09:07;99492.47;;;4.62;100.00
61757;BME280;57225;61.460;24.060;2022-10-04T01:12:02;99494.44;;;4.58;100.00
61757;BME280;57225;61.460;24.060;2022-10-04T01:15:00;99489.31;;;4.60;100.00
61757;BME280;57225;61.460;24.060;2022-10-04T01:18:10;99484.63;;;4.64;100.00
61757;BME280;57225;61.460;24.060;2022-10-04T01:26:51;99478.38;;;4.70;100.00
61757;BME280;57225;61.460;24.060;2022-10-04T01:29:35;99478.38;;;4.70;100.00
61757;BME280;57225;61.460;24.060;2022-10-04T01:32:20;99469.97;;;4.56;100.00
61757;BME280;57225;61.460;24.060;2022-10-04T01:35:10;99474.28;;;4.54;100.00
61757;BME280;57225;61.460;24.060;2022-10-04T01:37:55;99486.19;;;4.61;100.00
61757;BME280;57225;61.460;24.060;2022-10-04T01:40:53;99486.97;;;4.62;100.00
61757;BME280;57225;61.460;24.060;2022-10-04T01:43:48;99479.47;;;4.59;100.00
61757;BME280;57225;61.460;24.060;2022-10-04T01:46:35;99475.91;;;4.62;100.00
61757;BME280;57225;61.460;24.060;2022-10-04T01:49:24;99472.78;;;4.63;100.00
61757;BME280;57225;61.460;24.060;2022-10-04T01:52:26;99475.19;;;4.65;100.00
61757;BME280;57225;61.460;24.060;2022-10-04T01:55:17;99465.31;;;4.64;100.00
61757;BME280;57225;61.460;24.060;2022-10-04T01:58:08;99465.63;;;4.55;100.00
61757;BME280;57225;61.460;24.060;2022-10-04T02:01:38;99467.59;;;4.55;100.00
61757;BME280;57225;61.460;24.060;2022-10-04T02:04:30;99465.63;;;4.55;100.00
61757;BME280;57225;61.460;24.060;2022-10-04T02:07:15;99459.72;;;4.57;100.00
61757;BME280;57225;61.460;24.060;2022-10-04T02:10:03;99449.38;;;4.47;100.00
61757;BME280;57225;61.460;24.060;2022-10-04T02:12:49;99458.09;;;4.49;100.00
61757;BME280;57225;61.460;24.060;2022-10-04T02:15:36;99462.81;;;4.52;100.00
61757;BME280;57225;61.460;24.060;2022-10-04T02:18:23;99457.56;;;4.39;100.00
61757;BME280;57225;61.460;24.060;2022-10-04T02:21:10;99453.72;;;4.48;100.00
61757;BME280;57225;61.460;24.060;2022-10-04T02:23:55;99444.69;;;4.51;100.00
61757;BME280;57225;61.460;24.060;2022-10-04T02:26:40;99448.22;;;4.48;100.00
61757;BME280;57225;61.460;24.060;2022-10-04T02:29:25;99445.91;;;4.53;100.00
61757;BME280;57225;61.460;24.060;2022-10-04T02:32:10;99449.81;;;4.49;100.00
61757;BME280;57225;61.460;24.060;2022-10-04T02:35:15;99455.63;;;4.43;100.00
61757;BME280;57225;61.460;24.060;2022-10-04T02:38:12;99441.03;;;4.43;100.00
61757;BME280;57225;61.460;24.060;2022-10-04T02:41:07;99455.16;;;4.34;100.00
61757;BME280;57225;61.460;24.060;2022-10-04T02:46:56;99446.63;;;4.47;100.00
61757;BME280;57225;61.460;24.060;2022-10-04T02:50:16;99441.81;;;4.40;100.00
61757;BME280;57225;61.460;24.060;2022-10-04T02:53:17;99439.50;;;4.45;100.00
61757;BME280;57225;61.460;24.060;2022-10-04T02:56:05;99443.41;;;4.41;100.00
61757;BME280;57225;61.460;24.060;2022-10-04T02:58:52;99451.22;;;4.35;100.00
61757;BME280;57225;61.460;24.060;2022-10-04T03:01:56;99448.84;;;4.34;100.00
61757;BME280;57225;61.460;24.060;2022-10-04T03:04:41;99437.00;;;4.30;100.00
61757;BME280;57225;61.460;24.060;2022-10-04T03:07:26;99440.91;;;4.29;100.00
61757;BME280;57225;61.460;24.060;2022-10-04T03:10:11;99442.88;;;4.28;100.00
61757;BME280;57225;61.460;24.060;2022-10-04T03:12:57;99441.72;;;4.29;100.00
61757;BME280;57225;61.460;24.060;2022-10-04T03:15:42;99438.63;;;4.34;100.00
61757;BME280;57225;61.460;24.060;2022-10-04T03:18:26;99442.19;;;4.38;100.00
61757;BME280;57225;61.460;24.060;2022-10-04T03:21:15;99443.34;;;4.34;100.00
61757;BME280;57225;61.460;24.060;2022-10-04T03:24:02;99450.38;;;4.31;100.00
61757;BME280;57225;61.460;24.060;2022-10-04T03:26:51;99446.53;;;4.39;100.00
61757;BME280;57225;61.460;24.060;2022-10-04T03:29:38;99435.50;;;4.39;100.00
61757;BME280;57225;61.460;24.060;2022-10-04T03:32:26;99440.94;;;4.32;100.00
61757;BME280;57225;61.460;24.060;2022-10-04T03:38:13;99444.94;;;4.35;100.00
61757;BME280;57225;61.460;24.060;2022-10-04T03:40:59;99440.53;;;4.30;100.00
61757;BME280;57225;61.460;24.060;2022-10-04T03:43:46;99428.41;;;4.38;100.00
61757;BME280;57225;61.460;24.060;2022-10-04T03:46:33;99431.59;;;4.44;100.00
61757;BME280;57225;61.460;24.060;2022-10-04T03:49:32;99417.78;;;4.40;100.00
61757;BME280;57225;61.460;24.060;2022-10-04T03:52:24;99421.28;;;4.37;100.00
61757;BME280;57225;61.460;24.060;2022-10-04T03:55:12;99419.69;;;4.36;100.00
61757;BME280;57225;61.460;24.060;2022-10-04T03:57:58;99421.72;;;4.43;100.00
61757;BME280;57225;61.460;24.060;2022-10-04T04:01:03;99421.38;;;4.44;100.00
61757;BME280;57225;61.460;24.060;2022-10-04T04:07:21;99419.78;;;4.43;100.00
61757;BME280;57225;61.460;24.060;2022-10-04T04:15:54;99423.94;;;4.27;100.00
61757;BME280;57225;61.460;24.060;2022-10-04T04:18:42;99417.72;;;4.33;100.00
61757;BME280;57225;61.460;24.060;2022-10-04T04:21:28;99425.22;;;4.36;100.00
61757;BME280;57225;61.460;24.060;2022-10-04T04:24:27;99423.31;;;4.44;100.00
61757;BME280;57225;61.460;24.060;2022-10-04T04:27:16;99413.06;;;4.41;100.00
61757;BME280;57225;61.460;24.060;2022-10-04T04:30:05;99419.69;;;4.36;100.00
61757;BME280;57225;61.460;24.060;2022-10-04T04:32:51;99411.06;;;4.38;100.00
61757;BME280;57225;61.460;24.060;2022-10-04T04:35:38;99417.72;;;4.33;100.00
61757;BME280;57225;61.460;24.060;2022-10-04T04:38:24;99417.25;;;4.28;100.00
61757;BME280;57225;61.460;24.060;2022-10-04T04:41:09;99421.25;;;4.34;100.00
61757;BME280;57225;61.460;24.060;2022-10-04T04:43:54;99416.47;;;4.27;100.00
61757;BME280;57225;61.460;24.060;2022-10-04T04:46:39;99419.25;;;4.31;100.00
61757;BME280;57225;61.460;24.060;2022-10-04T04:49:29;99414.94;;;4.33;100.00
61757;BME280;57225;61.460;24.060;2022-10-04T04:52:15;99418.94;;;4.39;100.00
61757;BME280;57225;61.460;24.060;2022-10-04T04:55:02;99421.78;;;4.47;100.00
61757;BME280;57225;61.460;24.060;2022-10-04T04:57:48;99415.38;;;4.35;100.00
61757;BME280;57225;61.460;24.060;2022-10-04T05:00:35;99418.44;;;4.30;100.00
61757;BME280;57225;61.460;24.060;2022-10-04T05:03:21;99416.53;;;4.34;100.00
61757;BME280;57225;61.460;24.060;2022-10-04T05:06:23;99414.16;;;4.33;100.00
61757;BME280;57225;61.460;24.060;2022-10-04T05:09:43;99414.13;;;4.29;100.00
61757;BME280;57225;61.460;24.060;2022-10-04T05:12:28;99416.56;;;4.38;100.00
61757;BME280;57225;61.460;24.060;2022-10-04T05:15:12;99420.16;;;4.42;100.00
61757;BME280;57225;61.460;24.060;2022-10-04T05:17:56;99416.19;;;4.39;100.00
61757;BME280;57225;61.460;24.060;2022-10-04T05:20:48;99419.66;;;4.29;100.00
61757;BME280;57225;61.460;24.060;2022-10-04T05:23:33;99423.59;;;4.32;100.00
61757;BME280;57225;61.460;24.060;2022-10-04T05:26:27;99426.00;;;4.37;100.00
61757;BME280;57225;61.460;24.060;2022-10-04T05:29:18;99425.28;;;4.40;100.00
61757;BME280;57225;61.460;24.060;2022-10-04T05:32:16;99433.13;;;4.38;100.00
61757;BME280;57225;61.460;24.060;2022-10-04T05:35:18;99433.91;;;4.38;100.00
61757;BME280;57225;61.460;24.060;2022-10-04T05:38:08;99437.91;;;4.41;100.00
61757;BME280;57225;61.460;24.060;2022-10-04T05:43:59;99431.59;;;4.44;100.00
61757;BME280;57225;61.460;24.060;2022-10-04T05:46:45;99445.84;;;4.50;100.00
61757;BME280;57225;61.460;24.060;2022-10-04T05:49:35;99442.34;;;4.53;100.00
61757;BME280;57225;61.460;24.060;2022-10-04T05:52:33;99440.31;;;4.50;100.00
61757;BME280;57225;61.460;24.060;2022-10-04T05:59:06;99452.84;;;4.40;100.00
61757;BME280;57225;61.460;24.060;2022-10-04T06:05:13;99453.31;;;4.45;100.00
61757;BME280;57225;61.460;24.060;2022-10-04T06:14:25;99448.59;;;4.50;100.00
61757;BME280;57225;61.460;24.060;2022-10-04T06:18:15;99447.50;;;4.54;100.00
61757;BME280;57225;61.460;24.060;2022-10-04T06:23:32;99449.97;;;4.66;100.00
61757;BME280;57225;61.460;24.060;2022-10-04T06:26:21;99447.66;;;4.72;100.00
61757;BME280;57225;61.460;24.060;2022-10-04T06:29:17;99448.06;;;4.74;100.00
61757;BME280;57225;61.460;24.060;2022-10-04T06:32:26;99460.28;;;4.73;100.00
61757;BME280;57225;61.460;24.060;2022-10-04T06:44:46;99439.22;;;5.02;100.00
61757;BME280;57225;61.460;24.060;2022-10-04T06:54:30;99442.75;;;5.50;100.00
61757;BME280;57225;61.460;24.060;2022-10-04T07:00:44;99451.09;;;5.64;100.00
61757;BME280;57225;61.460;24.060;2022-10-04T07:03:46;99449.63;;;5.81;100.00
61757;BME280;57225;61.460;24.060;2022-10-04T07:06:50;99457.22;;;5.94;100.00
61757;BME280;57225;61.460;24.060;2022-10-04T07:10:20;99457.28;;;6.05;100.00
61757;BME280;57225;61.460;24.060;2022-10-04T07:13:20;99465.22;;;6.21;99.46
61757;BME280;57225;61.460;24.060;2022-10-04T07:16:23;99468.03;;;6.35;99.12
61757;BME280;57225;61.460;24.060;2022-10-04T07:22:42;99468.91;;;6.71;94.53
61757;BME280;57225;61.460;24.060;2022-10-04T07:25:33;99469.34;;;6.76;94.92
61757;BME280;57225;61.460;24.060;2022-10-04T07:28:28;99470.94;;;6.81;95.66
61757;BME280;57225;61.460;24.060;2022-10-04T07:31:34;99457.09;;;6.88;93.71
61757;BME280;57225;61.460;24.060;2022-10-04T07:34:25;99468.56;;;7.01;92.69
61757;BME280;57225;61.460;24.060;2022-10-04T07:37:12;99468.97;;;7.06;94.28
61757;BME280;57225;61.460;24.060;2022-10-04T07:40:08;99471.34;;;7.11;91.22
61757;BME280;57225;61.460;24.060;2022-10-04T07:43:12;99472.53;;;7.14;91.02
61757;BME280;57225;61.460;24.060;2022-10-04T07:46:42;99474.91;;;7.19;90.76
61757;BME280;57225;61.460;24.060;2022-10-04T07:49:28;99483.59;;;7.35;88.24
61757;BME280;57225;61.460;24.060;2022-10-04T07:52:30;99479.66;;;7.43;89.76
61757;BME280;57225;61.460;24.060;2022-10-04T07:55:48;99481.22;;;7.62;90.15
61757;BME280;57225;61.460;24.060;2022-10-04T07:58:43;99489.13;;;7.60;87.62
61757;BME280;57225;61.460;24.060;2022-10-04T08:01:43;99490.69;;;7.72;87.55
61757;BME280;57225;61.460;24.060;2022-10-04T08:04:45;99491.88;;;7.78;86.28
61757;BME280;57225;61.460;24.060;2022-10-04T08:11:22;99497.78;;;7.87;87.61
61757;BME280;57225;61.460;24.060;2022-10-04T08:21:00;99497.72;;;8.12;85.28
61757;BME280;57225;61.460;24.060;2022-10-04T08:24:07;99491.78;;;8.09;85.25
61757;BME280;57225;61.460;24.060;2022-10-04T08:39:34;99499.69;;;8.18;83.99
61757;BME280;57225;61.460;24.060;2022-10-04T08:42:29;99502.41;;;8.29;84.35
61757;BME280;57225;61.460;24.060;2022-10-04T08:46:18;99511.09;;;8.48;84.16
61757;BME280;57225;61.460;24.060;2022-10-04T09:19:53;99523.38;;;9.17;80.54
61757;BME280;57225;61.460;24.060;2022-10-04T09:25:47;99524.44;;;9.37;78.16
61757;BME280;57225;61.460;24.060;2022-10-04T09:28:42;99530.34;;;9.43;78.49
61757;BME280;57225;61.460;24.060;2022-10-04T09:39:01;99539.81;;;9.52;76.10
61757;BME280;57225;61.460;24.060;2022-10-04T09:41:30;99531.81;;;9.58;77.93
61757;BME280;57225;61.460;24.060;2022-10-04T09:47:43;99545.28;;;9.63;76.76
61757;BME280;57225;61.460;24.060;2022-10-04T09:54:18;99546.81;;;9.67;76.34
61757;BME280;57225;61.460;24.060;2022-10-04T09:57:28;99548.38;;;9.72;76.76
61757;BME280;57225;61.460;24.060;2022-10-04T10:00:21;99544.31;;;9.80;76.90
61757;BME280;57225;61.460;24.060;2022-10-04T10:17:00;99553.06;;;9.82;75.06
61757;BME280;57225;61.460;24.060;2022-10-04T10:19:47;99546.69;;;9.85;75.83
61757;BME280;57225;61.460;24.060;2022-10-04T10:48:29;99557.78;;;10.30;72.84
61757;BME280;57225;61.460;24.060;2022-10-04T11:07:41;99566.66;;;10.14;70.78
61757;BME280;57225;61.460;24.060;2022-10-04T11:20:06;99565.63;;;10.72;71.28
61757;BME280;57225;61.460;24.060;2022-10-04T11:32:39;99570.59;;;10.24;69.97
61757;BME280;57225;61.460;24.060;2022-10-04T11:35:51;99565.34;;;10.29;70.49
61757;BME280;57225;61.460;24.060;2022-10-04T11:39:01;99558.13;;;10.32;70.00
61757;BME280;57225;61.460;24.060;2022-10-04T11:41:50;99562.09;;;10.34;70.42
61757;BME280;57225;61.460;24.060;2022-10-04T11:44:59;99563.69;;;10.35;68.96
61757;BME280;57225;61.460;24.060;2022-10-04T11:48:14;99562.13;;;10.31;68.77
61757;BME280;57225;61.460;24.060;2022-10-04T11:57:14;99565.28;;;10.33;68.10
61757;BME280;57225;61.460;24.060;2022-10-04T12:00:22;99564.56;;;10.29;70.30
61757;BME280;57225;61.460;24.060;2022-10-04T12:09:09;99569.88;;;10.50;70.45
61757;BME280;57225;61.460;24.060;2022-10-04T12:12:26;99573.03;;;10.52;67.82
61757;BME280;57225;61.460;24.060;2022-10-04T12:15:42;99584.34;;;10.38;68.03
61757;BME280;57225;61.460;24.060;2022-10-04T12:21:43;99587.66;;;10.26;68.74
61757;BME280;57225;61.460;24.060;2022-10-04T12:28:19;99587.75;;;10.53;67.87
61757;BME280;57225;61.460;24.060;2022-10-04T12:37:19;99591.97;;;10.68;66.35
61757;BME280;57225;61.460;24.060;2022-10-04T12:52:22;99598.44;;;10.92;67.25
61757;BME280;57225;61.460;24.060;2022-10-04T12:55:13;99602.13;;;10.81;67.27
61757;BME280;57225;61.460;24.060;2022-10-04T12:58:09;99595.19;;;10.63;67.04
61757;BME280;57225;61.460;24.060;2022-10-04T13:01:13;99599.88;;;10.69;66.95
61757;BME280;57225;61.460;24.060;2022-10-04T13:04:10;99597.47;;;10.71;67.03
61757;BME280;57225;61.460;24.060;2022-10-04T13:13:08;99589.59;;;10.66;65.33
61757;BME280;57225;61.460;24.060;2022-10-04T13:22:21;99587.81;;;10.49;67.58
61757;BME280;57225;61.460;24.060;2022-10-04T13:37:36;99576.34;;;10.40;66.46
61757;BME280;57225;61.460;24.060;2022-10-04T13:40:49;99585.50;;;10.40;66.68
61757;BME280;57225;61.460;24.060;2022-10-04T14:00:12;99590.25;;;10.02;69.78
61757;BME280;57225;61.460;24.060;2022-10-04T14:09:54;99606.28;;;9.88;70.46
61757;BME280;57225;61.460;24.060;2022-10-04T14:16:11;99610.25;;;9.90;70.22
61757;BME280;57225;61.460;24.060;2022-10-04T14:19:36;99616.25;;;9.85;69.86
61757;BME280;57225;61.460;24.060;2022-10-04T14:22:40;99619.44;;;9.84;68.77
61757;BME280;57225;61.460;24.060;2022-10-04T14:50:19;99628.19;;;9.23;74.15
61757;BME280;57225;61.460;24.060;2022-10-04T14:53:20;99643.31;;;9.22;75.00
61757;BME280;57225;61.460;24.060;2022-10-04T14:59:25;99647.28;;;9.21;75.56
61757;BME280;57225;61.460;24.060;2022-10-04T15:08:58;99660.53;;;8.89;76.85
61757;BME280;57225;61.460;24.060;2022-10-04T15:12:23;99660.16;;;8.80;77.30
61757;BME280;57225;61.460;24.060;2022-10-04T15:18:02;99668.94;;;8.68;77.63
61757;BME280;57225;61.460;24.060;2022-10-04T15:30:30;99681.69;;;7.98;83.15
61757;BME280;57225;61.460;24.060;2022-10-04T15:33:40;99673.78;;;7.89;84.16
61757;BME280;57225;61.460;24.060;2022-10-04T15:43:16;99681.63;;;7.48;90.99
61757;BME280;57225;61.460;24.060;2022-10-04T15:51:48;99675.25;;;7.30;94.02
61757;BME280;57225;61.460;24.060;2022-10-04T16:01:10;99683.97;;;7.25;92.61
61757;BME280;57225;61.460;24.060;2022-10-04T16:13:39;99685.59;;;7.37;94.54
61757;BME280;57225;61.460;24.060;2022-10-04T16:22:33;99693.16;;;7.57;89.53
61757;BME280;57225;61.460;24.060;2022-10-04T16:37:37;99706.25;;;7.67;89.63
61757;BME280;57225;61.460;24.060;2022-10-04T16:46:11;99706.22;;;7.50;93.88
61757;BME280;57225;61.460;24.060;2022-10-04T16:49:25;99706.22;;;7.50;93.09
61757;BME280;57225;61.460;24.060;2022-10-04T16:52:24;99705.84;;;7.73;90.03
61757;BME280;57225;61.460;24.060;2022-10-04T16:55:20;99712.22;;;7.77;90.72
61757;BME280;57225;61.460;24.060;2022-10-04T17:01:41;99714.97;;;7.70;90.30
61757;BME280;57225;61.460;24.060;2022-10-04T17:04:32;99714.94;;;7.55;92.78
61757;BME280;57225;61.460;24.060;2022-10-04T17:10:33;99711.72;;;7.46;94.29
61757;BME280;57225;61.460;24.060;2022-10-04T17:13:33;99713.69;;;7.35;96.02
61757;BME280;57225;61.460;24.060;2022-10-04T17:16:36;99708.53;;;7.34;96.43
61757;BME280;57225;61.460;24.060;2022-10-04T17:19:31;99716.47;;;7.39;96.26
61757;BME280;57225;61.460;24.060;2022-10-04T17:22:45;99710.50;;;7.30;97.24
61757;BME280;57225;61.460;24.060;2022-10-04T17:37:25;99715.63;;;7.20;99.69
61757;BME280;57225;61.460;24.060;2022-10-04T17:40:19;99710.84;;;7.21;99.80
61757;BME280;57225;61.460;24.060;2022-10-04T17:49:03;99700.94;;;7.13;99.96
61757;BME280;57225;61.460;24.060;2022-10-04T17:52:18;99702.16;;;7.19;100.00
61757;BME280;57225;61.460;24.060;2022-10-04T17:55:28;99707.63;;;7.05;100.00
61757;BME280;57225;61.460;24.060;2022-10-04T17:58:23;99702.03;;;6.91;100.00
61757;BME280;57225;61.460;24.060;2022-10-04T18:01:32;99704.75;;;6.83;100.00
61757;BME280;57225;61.460;24.060;2022-10-04T18:04:22;99706.25;;;6.70;100.00
61757;BME280;57225;61.460;24.060;2022-10-04T18:07:19;99709.78;;;6.60;100.00
61757;BME280;57225;61.460;24.060;2022-10-04T18:10:35;99697.00;;;6.38;100.00
61757;BME280;57225;61.460;24.060;2022-10-04T18:22:45;99702.53;;;5.90;100.00
61757;BME280;57225;61.460;24.060;2022-10-04T18:25:31;99702.03;;;5.81;100.00
61757;BME280;57225;61.460;24.060;2022-10-04T18:28:21;99699.53;;;5.69;100.00
61757;BME280;57225;61.460;24.060;2022-10-04T18:31:34;99706.88;;;5.51;100.00
61757;BME280;57225;61.460;24.060;2022-10-04T18:34:28;99699.34;;;5.48;100.00
61757;BME280;57225;61.460;24.060;2022-10-04T18:43:01;99705.06;;;5.29;100.00
61757;BME280;57225;61.460;24.060;2022-10-04T18:46:24;99699.88;;;5.23;100.00
61757;BME280;57225;61.460;24.060;2022-10-04T18:49:15;99705.66;;;5.11;100.00
61757;BME280;57225;61.460;24.060;2022-10-04T18:52:16;99702.75;;;5.01;100.00
61757;BME280;57225;61.460;24.060;2022-10-04T18:56:00;99710.81;;;4.83;100.00
61757;BME280;57225;61.460;24.060;2022-10-04T18:59:12;99702.03;;;4.74;100.00
61757;BME280;57225;61.460;24.060;2022-10-04T19:02:58;99700.66;;;4.61;100.00
61757;BME280;57225;61.460;24.060;2022-10-04T19:05:57;99700.59;;;4.57;100.00
61757;BME280;57225;61.460;24.060;2022-10-04T19:12:07;99705.38;;;4.34;100.00
61757;BME280;57225;61.460;24.060;2022-10-04T19:34:13;99696.66;;;3.79;100.00
61757;BME280;57225;61.460;24.060;2022-10-04T19:37:36;99699.69;;;3.74;100.00
61757;BME280;57225;61.460;24.060;2022-10-04T19:40:49;99702.38;;;3.71;100.00
61757;BME280;57225;61.460;24.060;2022-10-04T19:47:00;99697.59;;;3.68;100.00
61757;BME280;57225;61.460;24.060;2022-10-04T19:55:54;99693.31;;;3.47;100.00
61757;BME280;57225;61.460;24.060;2022-10-04T19:58:41;99686.94;;;3.43;100.00
61757;BME280;57225;61.460;24.060;2022-10-04T20:01:27;99686.53;;;3.41;100.00
61757;BME280;57225;61.460;24.060;2022-10-04T20:04:14;99681.00;;;3.41;100.00
61757;BME280;57225;61.460;24.060;2022-10-04T20:07:22;99682.03;;;3.33;100.00
61757;BME280;57225;61.460;24.060;2022-10-04T20:10:40;99686.75;;;3.33;100.00
61757;BME280;57225;61.460;24.060;2022-10-04T20:13:25;99689.16;;;3.34;100.00
61757;BME280;57225;61.460;24.060;2022-10-04T20:16:11;99694.38;;;3.20;100.00
61757;BME280;57225;61.460;24.060;2022-10-04T20:18:57;99692.13;;;3.26;100.00
61757;BME280;57225;61.460;24.060;2022-10-04T20:21:43;99685.25;;;3.16;100.00
61757;BME280;57225;61.460;24.060;2022-10-04T20:30:13;99682.06;;;2.95;100.00
61757;BME280;57225;61.460;24.060;2022-10-04T20:32:58;99694.44;;;3.04;100.00
61757;BME280;57225;61.460;24.060;2022-10-04T20:38:54;99692.66;;;2.93;100.00
61757;BME280;57225;61.460;24.060;2022-10-04T20:41:43;99682.28;;;2.86;100.00
61757;BME280;57225;61.460;24.060;2022-10-04T20:45:26;99691.56;;;2.78;100.00
61757;BME280;57225;61.460;24.060;2022-10-04T20:48:16;99695.91;;;2.79;100.00
61757;BME280;57225;61.460;24.060;2022-10-04T20:51:08;99699.38;;;2.76;100.00
61757;BME280;57225;61.460;24.060;2022-10-04T20:53:53;99689.88;;;2.73;100.00
61757;BME280;57225;61.460;24.060;2022-10-04T20:56:38;99703.63;;;2.73;100.00
61757;BME280;57225;61.460;24.060;2022-10-04T20:59:23;99700.31;;;2.64;100.00
61757;BME280;57225;61.460;24.060;2022-10-04T21:02:15;99700.72;;;2.66;100.00
61757;BME280;57225;61.460;24.060;2022-10-04T21:05:23;99704.50;;;2.58;100.00
61757;BME280;57225;61.460;24.060;2022-10-04T21:08:26;99704.50;;;2.58;100.00
61757;BME280;57225;61.460;24.060;2022-10-04T21:11:15;99699.19;;;2.50;100.00
61757;BME280;57225;61.460;24.060;2022-10-04T21:14:01;99703.47;;;2.47;100.00
61757;BME280;57225;61.460;24.060;2022-10-04T21:16:47;99701.44;;;2.44;100.00
61757;BME280;57225;61.460;24.060;2022-10-04T21:25:29;99709.34;;;2.30;100.00
61757;BME280;57225;61.460;24.060;2022-10-04T21:28:34;99719.91;;;2.28;100.00
61757;BME280;57225;61.460;24.060;2022-10-04T21:31:18;99707.16;;;2.20;100.00
61757;BME280;57225;61.460;24.060;2022-10-04T21:34:03;99713.38;;;2.17;100.00
61757;BME280;57225;61.460;24.060;2022-10-04T21:36:47;99711.41;;;2.17;100.00
61757;BME280;57225;61.460;24.060;2022-10-04T21:39:32;99714.78;;;2.11;100.00
61757;BME280;57225;61.460;24.060;2022-10-04T21:42:17;99709.28;;;2.11;100.00
61757;BME280;57225;61.460;24.060;2022-10-04T21:45:01;99699.44;;;2.10;100.00
61757;BME280;57225;61.460;24.060;2022-10-04T21:47:46;99699.72;;;2.05;100.00
61757;BME280;57225;61.460;24.060;2022-10-04T21:50:30;99699.19;;;2.15;100.00
61757;BME280;57225;61.460;24.060;2022-10-04T21:53:15;99704.06;;;2.06;100.00
61757;BME280;57225;61.460;24.060;2022-10-04T21:55:59;99702.81;;;2.03;100.00
61757;BME280;57225;61.460;24.060;2022-10-04T21:58:44;99700.00;;;1.99;100.00
61757;BME280;57225;61.460;24.060;2022-10-04T22:01:28;99694.84;;;1.98;100.00
61757;BME280;57225;61.460;24.060;2022-10-04T22:04:13;99700.97;;;1.91;100.00
61757;BME280;57225;61.460;24.060;2022-10-04T22:06:57;99700.09;;;1.87;100.00
61757;BME280;57225;61.460;24.060;2022-10-04T22:09:42;99699.94;;;1.80;100.00
61757;BME280;57225;61.460;24.060;2022-10-04T22:12:29;99708.16;;;1.80;100.00
61757;BME280;57225;61.460;24.060;2022-10-04T22:15:14;99714.53;;;1.84;100.00
61757;BME280;57225;61.460;24.060;2022-10-04T22:17:58;99714.72;;;1.76;100.00
61757;BME280;57225;61.460;24.060;2022-10-04T22:20:43;99708.44;;;1.75;100.00
61757;BME280;57225;61.460;24.060;2022-10-04T22:23:31;99699.75;;;1.73;100.00
61757;BME280;57225;61.460;24.060;2022-10-04T22:26:23;99697.44;;;1.75;100.00
61757;BME280;57225;61.460;24.060;2022-10-04T22:29:15;99706.66;;;1.67;100.00
61757;BME280;57225;61.460;24.060;2022-10-04T22:31:59;99698.88;;;1.69;100.00
61757;BME280;57225;61.460;24.060;2022-10-04T22:34:44;99696.13;;;1.69;100.00
61757;BME280;57225;61.460;24.060;2022-10-04T22:37:29;99683.34;;;1.61;100.00
61757;BME280;57225;61.460;24.060;2022-10-04T22:40:17;99677.41;;;1.59;100.00
61757;BME280;57225;61.460;24.060;2022-10-04T22:43:02;99679.00;;;1.60;100.00
61757;BME280;57225;61.460;24.060;2022-10-04T22:45:47;99677.41;;;1.59;100.00
61757;BME280;57225;61.460;24.060;2022-10-04T22:48:32;99675.84;;;1.58;100.00
61757;BME280;57225;61.460;24.060;2022-10-04T22:51:16;99676.72;;;1.62;100.00
61757;BME280;57225;61.460;24.060;2022-10-04T22:54:00;99677.69;;;1.54;100.00
61757;BME280;57225;61.460;24.060;2022-10-04T22:56:45;99683.69;;;1.44;100.00
61757;BME280;57225;61.460;24.060;2022-10-04T22:59:50;99692.00;;;1.32;100.00
61757;BME280;57225;61.460;24.060;2022-10-04T23:02:34;99704.03;;;1.27;100.00
61757;BME280;57225;61.460;24.060;2022-10-04T23:05:19;99705.63;;;1.28;100.00
61757;BME280;57225;61.460;24.060;2022-10-04T23:08:03;99708.03;;;1.30;100.00
61757;BME280;57225;61.460;24.060;2022-10-04T23:10:52;99716.78;;;1.19;100.00
61757;BME280;57225;61.460;24.060;2022-10-04T23:13:36;99733.59;;;1.18;100.00
61757;BME280;57225;61.460;24.060;2022-10-04T23:16:22;99729.69;;;1.19;100.00
61757;BME280;57225;61.460;24.060;2022-10-04T23:19:16;99728.19;;;1.21;100.00
61757;BME280;57225;61.460;24.060;2022-10-04T23:22:08;99713.44;;;0.98;100.00
61757;BME280;57225;61.460;24.060;2022-10-04T23:24:57;99736.28;;;1.02;100.00
61757;BME280;57225;61.460;24.060;2022-10-04T23:27:42;99722.53;;;1.02;100.00
61757;BME280;57225;61.460;24.060;2022-10-04T23:30:27;99720.66;;;1.18;100.00
61757;BME280;57225;61.460;24.060;2022-10-04T23:33:17;99708.63;;;1.23;100.00